Ronald, WA (98940)

4:40 PM PST on December 10, 2016 (GMT -0800)
Tumble Creek | | Change Station

Elev 2251 ft 47.22 °N, 121.04 °W | Updated 10 seconds ago

Overcast
Overcast
21.2 °F
Feels Like 21 °F
N
0.0
Wind Variable Wind from WSW
Gusts 0.0 mph

Today
High -- | Low -- °F
--% Chance of Precip.
Yesterday
High -- | Low -- °F
Precip. -- in
Pressure 29.75 in
Visibility 2.0 miles
Clouds Overcast 1100 ft
Windchill 21 °F
Dew Point 15 °F
Humidity 78%
Rainfall 0.00 in
Snow Depth Not available.
7:40 AM 4:13 PM
Waxing Gibbous, 87% visible
SPECI KSMP 110024Z AUTO 00000KT 2SM BR OVC011 M04/M04 A2975 RMK AO2 T10391039 PWINO FZRANO $
Pressure 29.75 in
Visibility 2.0 miles
Clouds Overcast 1100 ft
Windchill 21 °F
Dew Point 15 °F
Humidity 78%
Rainfall 0.00 in
Snow Depth Not available.
7:40 AM 4:13 PM
Waxing Gibbous, 87% visible
SPECI KSMP 110024Z AUTO 00000KT 2SM BR OVC011 M04/M04 A2975 RMK AO2 T10391039 PWINO FZRANO $

10-Day Weather Forecast

Almanac

Astronomy

Dec. 10, 2016 Rise Set
Actual Time
Civil Twilight
Nautical Twilight
Astronomical Twilight
Moon
Length of Visible Light
Length of Day
Tomorrow will be .
, % of the Moon is Illuminated

Today's Extremes

State Highs State Lows

Community

WunderPhotos

Upload Photos

1,956,685 photos uploaded!

WunderBlog® & News

Nearby

Air Quality

  Air Quality AQ Index Pollutant
Not available.

Snow Depth

Station Depth Elevation

Earthquake Activity

City Distance Mag. Time & Date
Minimum magnitude displayed is 2.5.

Coastal Water Temperatures

Place Temperature

Stations

Nearby Weather Stations

Station Location Temp. Windchill Dew Point Humidity Wind Precip. Elev Updated Type
                   

Watches & Warnings

There are currently no watches in effect.